Wales, AK

12:25 PM AKST on January 17, 2017 (GMT -0900)
Tin City LRRS | | Change Station

Elev 269 ft 65.56 °N, 167.92 °W | Updated 30 minutes ago

Mostly Cloudy
Mostly Cloudy
-7 °F
Feels Like -31 °F
N
20
Wind Variable Wind from NNE

Today
High -- | Low -- °F
--% Chance of Precip.
Yesterday
High -- | Low -- °F
Precip. -- in
Pressure 29.52 in
Visibility 8.0 miles
Clouds Mostly Cloudy 1100 ft
Windchill -31 °F
Dew Point -10 °F
Humidity 86%
Rainfall 0.00 in
Snow Depth Not available.
11:50 AM 4:54 PM
Waning Gibbous, 69% visible
METAR PATC 172055Z AUTO 02017KT 8SM -SN BKN011 M21/M23 A2948 RMK AO2 SHSNB1928E2022 SLP996 P0000 60000 T12151233 51018
Pressure 29.52 in
Visibility 8.0 miles
Clouds Mostly Cloudy 1100 ft
Windchill -31 °F
Dew Point -10 °F
Humidity 86%
Rainfall 0.00 in
Snow Depth Not available.
11:50 AM 4:54 PM
Waning Gibbous, 69% visible
METAR PATC 172055Z AUTO 02017KT 8SM -SN BKN011 M21/M23 A2948 RMK AO2 SHSNB1928E2022 SLP996 P0000 60000 T12151233 51018

Get Your Daily Forecast Email!

Thanks for signing up!

Be on the lookout for a verification email in your inbox.

You'll start receiving the daily forecast at 8 AM.

×

10-Day Weather Forecast

Almanac

Astronomy

Jan. 17, 2017 Rise Set
Actual Time
Civil Twilight
Nautical Twilight
Astronomical Twilight
Moon
Length of Visible Light
Length of Day
Tomorrow will be .
, % of the Moon is Illuminated

Today's Extremes

State Highs State Lows

Community

WunderPhotos

Upload Photos

1,962,540 photos uploaded!

WunderBlog® & News

Nearby

Air Quality

  Air Quality AQ Index Pollutant
Not available.

Snow Depth

Station Depth Elevation

Earthquake Activity

City Distance Mag. Time & Date
Minimum magnitude displayed is 2.5.

Coastal Water Temperatures

Place Temperature

Stations

Nearby Weather Stations

Station Location Temp. Windchill Dew Point Humidity Wind Precip. Elev Updated Type
                   

Watches & Warnings

There are currently no watches in effect.